X  CloseMetar Aviation Weather Data     ENZV Stavanger , Sola

Temperature

8°C Temperature

5°C Dewpoint

82% Humidity



Wind

13 KM/H

 8 MPH

 4 M/S

 7 KTS



310°
North West
Current Conditions

Mostly Scattered Clouds Mostly Scattered Clouds
Pressure 998.92 (hPa) - 29.5 (in)
Visibility 6.2 (mi) - 10 (km)
Airport
Airport-code ENZV

Location Stavanger , Sola 100 (km)

Metar:
ENZV 270050Z 31007KT 9999 SCT016 BKN100 08/05 Q0999

Time: 27-05-2019 02:50